Time;durP1;ratioP1;P1;durP2;ratioP2;P2;SDS_P1;SDS_P2;PMS_P1;PMS_P2;Temp;Humidity;BMP_temperature;BMP_pressure;BME280_temperature;BME280_humidity;BME280_pressure;Samples;Min_cycle;Max_cycle;Signal;HPM_P1;HPM_P2
2023/04/11 00:04:03;;;;;;;3.45;1.65;;;;;;;12.99;68.60;99824.72;10184466;29;20115;-63
2023/04/11 00:09:05;;;;;;;2.85;1.45;;;;;;;12.97;69.00;99835.69;10186056;29;20054;-64
2023/04/11 00:14:07;;;;;;;1.58;0.75;;;;;;;12.73;69.55;99820.09;10185899;29;20087;-64
2023/04/11 00:19:09;;;;;;;0.73;0.50;;;;;;;12.58;69.33;99836.41;10187410;29;20131;-63
2023/04/11 00:24:10;;;;;;;1.95;0.40;;;;;;;12.32;70.11;99832.56;10188402;29;20068;-63
2023/04/11 00:29:11;;;;;;;0.98;0.40;;;;;;;12.27;70.09;99795.47;10185740;29;20473;-64
2023/04/11 00:34:13;;;;;;;1.45;0.40;;;;;;;12.30;69.51;99813.94;10182960;29;20091;-63
2023/04/11 00:39:17;;;;;;;0.60;0.32;;;;;;;12.34;69.53;99818.91;10187811;29;20071;-62
2023/04/11 00:44:18;;;;;;;1.25;0.40;;;;;;;12.42;69.15;99791.78;10185209;29;20578;-63
2023/04/11 00:49:20;;;;;;;1.45;0.68;;;;;;;12.54;69.22;99778.53;10173125;29;20048;-63
2023/04/11 00:54:22;;;;;;;4.30;1.02;;;;;;;12.57;69.89;99780.84;10178410;29;20578;-63
2023/04/11 00:59:26;;;;;;;1.42;0.85;;;;;;;12.62;69.82;99808.03;10180657;29;20076;-63
2023/04/11 01:04:28;;;;;;;1.83;0.60;;;;;;;12.35;71.01;99821.41;10184962;29;20146;-63
2023/04/11 01:09:32;;;;;;;0.50;0.30;;;;;;;11.99;71.65;99848.59;10182680;29;20047;-63
2023/04/11 01:14:34;;;;;;;1.00;0.40;;;;;;;12.13;71.70;99831.47;10170656;29;21023;-62
2023/04/11 01:19:35;;;;;;;0.30;0.20;;;;;;;12.05;71.11;99854.00;10185002;29;20137;-62
2023/04/11 01:24:37;;;;;;;1.05;0.45;;;;;;;11.99;71.34;99873.66;10181138;29;20079;-64
2023/04/11 01:29:38;;;;;;;0.55;0.20;;;;;;;11.83;71.59;99874.75;10179833;29;20075;-63
2023/04/11 01:34:42;;;;;;;0.50;0.20;;;;;;;11.59;71.58;99865.25;10182753;29;20071;-64
2023/04/11 01:39:43;;;;;;;1.92;0.20;;;;;;;11.66;71.23;99849.97;10181422;29;20078;-63
2023/04/11 01:44:45;;;;;;;1.60;0.30;;;;;;;11.43;71.47;99846.69;10187094;29;20110;-63
2023/04/11 01:49:47;;;;;;;2.20;0.20;;;;;;;11.34;71.55;99831.72;10177660;29;20112;-63
2023/04/11 01:54:49;;;;;;;0.80;0.22;;;;;;;11.36;70.71;99843.13;10179965;29;20115;-63
2023/04/11 01:59:50;;;;;;;1.83;0.35;;;;;;;11.47;70.45;99831.81;10167675;29;20107;-64
2023/04/11 02:04:52;;;;;;;0.10;0.10;;;;;;;11.48;70.37;99850.44;10177860;29;20056;-63
2023/04/11 02:09:53;;;;;;;0.20;0.10;;;;;;;11.43;70.36;99846.69;10182756;29;20051;-62
2023/04/11 02:14:54;;;;;;;0.13;0.10;;;;;;;11.43;70.04;99842.16;10181769;29;20570;-62
2023/04/11 02:19:56;;;;;;;2.05;0.50;;;;;;;11.52;70.09;99840.97;10183150;29;20074;-62
2023/04/11 02:24:58;;;;;;;0.40;0.17;;;;;;;11.58;69.53;99842.03;10176628;29;20171;-63
2023/04/11 02:29:59;;;;;;;1.00;0.20;;;;;;;11.55;70.12;99873.91;10179364;29;20693;-62
2023/04/11 02:35:01;;;;;;;1.38;0.30;;;;;;;11.45;70.26;99864.31;10180270;29;20143;-62
2023/04/11 02:40:04;;;;;;;0.47;0.20;;;;;;;11.48;70.36;99863.09;10181033;29;20060;-63
2023/04/11 02:45:06;;;;;;;1.23;0.17;;;;;;;11.50;70.09;99861.84;10180370;29;20157;-62
2023/04/11 02:50:08;;;;;;;0.30;0.10;;;;;;;11.51;69.90;99866.22;10183347;29;20043;-61
2023/04/11 02:55:10;;;;;;;0.65;0.10;;;;;;;11.48;69.99;99873.84;10180407;29;20084;-62
2023/04/11 03:00:11;;;;;;;0.28;0.20;;;;;;;11.45;69.79;99868.84;10173842;29;20052;-62
2023/04/11 03:05:14;;;;;;;1.05;0.15;;;;;;;11.36;70.06;99884.31;10177474;29;20048;-61
2023/04/11 03:10:15;;;;;;;2.53;0.10;;;;;;;11.26;70.13;99865.78;10182923;29;20056;-61
2023/04/11 03:15:17;;;;;;;0.70;0.10;;;;;;;11.36;69.86;99860.09;10181776;29;20052;-61
2023/04/11 03:20:19;;;;;;;1.95;0.20;;;;;;;11.43;69.82;99839.47;10179156;29;20072;-61
2023/04/11 03:25:21;;;;;;;2.90;0.25;;;;;;;11.52;70.01;99840.13;10181021;29;20173;-60
2023/04/11 03:30:22;;;;;;;0.88;0.38;;;;;;;11.56;70.00;99832.50;10173818;29;20099;-61
2023/04/11 03:35:24;;;;;;;2.55;0.30;;;;;;;11.59;69.99;99829.41;10162161;29;20471;-62
2023/04/11 03:40:25;;;;;;;2.25;0.28;;;;;;;11.49;70.62;99838.69;10186113;29;20571;-61
2023/04/11 03:45:27;;;;;;;2.38;0.30;;;;;;;11.57;70.46;99834.16;10186135;29;20080;-61
2023/04/11 03:50:28;;;;;;;2.67;0.75;;;;;;;11.46;70.52;99859.75;10187395;29;20448;-61
2023/04/11 03:55:29;;;;;;;1.45;0.10;;;;;;;11.40;70.37;99852.47;10179830;29;20135;-61
2023/04/11 04:00:31;;;;;;;1.65;0.13;;;;;;;11.31;70.87;99838.28;10185655;29;20071;-60
2023/04/11 04:05:32;;;;;;;2.75;0.10;;;;;;;11.24;70.72;99850.88;10185109;29;20052;-61
2023/04/11 04:10:34;;;;;;;1.02;0.10;;;;;;;11.21;70.76;99852.06;10181566;29;20151;-62
2023/04/11 04:15:35;;;;;;;0.50;0.10;;;;;;;11.07;70.73;99845.72;10183220;29;20123;-62
2023/04/11 04:20:36;;;;;;;0.60;0.15;;;;;;;11.14;70.45;99850.34;10186422;29;20167;-62
2023/04/11 04:25:41;;;;;;;2.17;0.77;;;;;;;11.14;70.45;99866.47;10187006;29;20083;-62
2023/04/11 04:30:42;;;;;;;2.55;0.40;;;;;;;11.19;70.39;99867.56;10185728;29;20056;-63
2023/04/11 04:35:43;;;;;;;1.60;0.20;;;;;;;11.16;70.21;99883.25;10183164;29;20052;-60
2023/04/11 04:40:45;;;;;;;3.15;0.40;;;;;;;11.15;70.62;99877.06;10194454;29;20040;-62
2023/04/11 04:45:49;;;;;;;0.55;0.20;;;;;;;11.13;70.50;99884.47;10216782;29;20062;-63
2023/04/11 04:50:50;;;;;;;0.98;0.30;;;;;;;11.18;70.17;99890.13;10217868;29;20072;-63
2023/04/11 04:55:52;;;;;;;2.45;0.40;;;;;;;11.13;70.28;99894.41;10208028;29;20052;-64
2023/04/11 05:00:56;;;;;;;1.63;0.10;;;;;;;11.19;70.28;99896.34;10197286;29;20060;-65
2023/04/11 05:05:58;;;;;;;1.40;0.20;;;;;;;11.19;69.99;99894.47;10199251;29;20060;-65
2023/04/11 05:10:59;;;;;;;0.77;0.20;;;;;;;11.06;70.51;99907.81;10203713;29;20060;-65
2023/04/11 05:16:01;;;;;;;0.85;0.10;;;;;;;11.17;70.22;99904.59;10193242;29;20060;-66
2023/04/11 05:21:04;;;;;;;1.30;0.20;;;;;;;11.20;70.17;99896.16;10189179;29;20095;-64
2023/04/11 05:26:06;;;;;;;2.55;0.38;;;;;;;11.26;69.69;99903.47;10185734;29;20052;-63
2023/04/11 05:31:08;;;;;;;3.08;0.20;;;;;;;11.32;69.94;99909.94;10192569;29;20048;-63
2023/04/11 05:36:13;;;;;;;3.97;0.50;;;;;;;11.27;70.06;99913.19;10191883;29;20056;-64
2023/04/11 05:41:15;;;;;;;1.17;0.20;;;;;;;11.26;70.05;99916.91;10201056;29;20051;-64
2023/04/11 05:46:16;;;;;;;3.00;0.65;;;;;;;11.26;69.99;99924.97;10196536;29;20087;-64
2023/04/11 05:51:18;;;;;;;2.15;0.25;;;;;;;11.22;69.97;99931.78;10203292;29;20055;-64
2023/04/11 05:56:19;;;;;;;1.30;0.30;;;;;;;11.26;69.60;99930.38;10205196;29;20068;-64
2023/04/11 06:01:21;;;;;;;2.13;0.20;;;;;;;11.20;69.86;99946.44;10199228;29;20048;-64
2023/04/11 06:06:22;;;;;;;2.90;0.22;;;;;;;11.27;69.67;99947.34;10198196;29;20055;-64
2023/04/11 06:11:25;;;;;;;3.75;0.70;;;;;;;11.35;69.43;99957.97;10184060;29;20048;-64
2023/04/11 06:16:28;;;;;;;4.05;0.70;;;;;;;11.45;68.75;99960.34;10176314;29;20080;-64
2023/04/11 06:21:31;;;;;;;2.53;0.25;;;;;;;11.61;68.79;99965.50;10178214;29;20067;-64
2023/04/11 06:26:32;;;;;;;3.65;0.47;;;;;;;11.95;68.03;99972.06;10175941;29;20052;-64
2023/04/11 06:31:33;;;;;;;6.82;0.60;;;;;;;12.11;68.06;99968.25;10179896;29;20115;-65
2023/04/11 06:36:36;;;;;;;4.57;0.30;;;;;;;12.31;67.42;99965.69;10177856;29;20044;-64
2023/04/11 06:41:37;;;;;;;3.63;0.40;;;;;;;12.46;66.76;99965.56;10181832;29;20134;-63
2023/04/11 06:46:39;;;;;;;5.63;0.30;;;;;;;12.58;66.36;99979.31;10178259;29;20055;-64
2023/04/11 06:51:40;;;;;;;2.65;0.40;;;;;;;12.68;65.99;99983.34;10172224;29;20059;-64
2023/04/11 06:56:42;;;;;;;6.55;0.50;;;;;;;12.64;64.95;99994.72;10176626;29;20147;-64
2023/04/11 07:01:43;;;;;;;5.38;0.82;;;;;;;12.58;64.10;99998.19;10180499;29;20464;-64
2023/04/11 07:06:45;;;;;;;5.25;1.38;;;;;;;12.76;62.80;100006.63;10172536;29;20452;-63
2023/04/11 07:11:46;;;;;;;6.93;0.50;;;;;;;12.82;61.18;100010.41;10178498;29;20051;-64
2023/04/11 07:16:48;;;;;;;10.23;1.30;;;;;;;12.93;60.98;100019.78;10187343;29;20087;-64
2023/04/11 07:21:49;;;;;;;6.70;0.55;;;;;;;12.89;60.28;100019.34;10187704;29;20123;-64
2023/04/11 07:26:52;;;;;;;9.60;0.82;;;;;;;12.74;58.68;100038.34;10189643;29;20055;-64
2023/04/11 07:31:53;;;;;;;2.72;0.32;;;;;;;12.71;57.60;100046.81;10182317;29;20455;-64
2023/04/11 07:36:59;;;;;;;7.13;0.43;;;;;;;12.90;57.97;100040.72;10188481;29;20504;-65
2023/04/11 07:42:02;;;;;;;6.35;0.77;;;;;;;12.65;57.09;100050.31;10180311;29;20066;-64
2023/04/11 07:47:03;;;;;;;11.15;0.40;;;;;;;12.61;56.25;100040.97;10189642;29;20043;-64
2023/04/11 07:52:05;;;;;;;4.40;0.35;;;;;;;12.62;54.91;100045.34;10188981;29;20344;-62
2023/04/11 07:57:06;;;;;;;6.55;0.65;;;;;;;12.68;54.20;100042.66;10184789;29;20079;-63
2023/04/11 08:02:08;;;;;;;5.30;0.63;;;;;;;12.88;53.72;100041.97;10196072;29;20107;-64
2023/04/11 08:07:10;;;;;;;7.45;0.20;;;;;;;12.97;54.10;100048.03;10200093;29;20044;-63
2023/04/11 08:12:11;;;;;;;4.38;0.30;;;;;;;12.94;53.93;100059.22;10200359;29;20052;-61
2023/04/11 08:17:13;;;;;;;5.25;0.40;;;;;;;12.90;53.37;100056.09;10206633;29;20054;-62
2023/04/11 08:22:28;;;;;;;6.30;0.32;;;;;;;13.05;53.58;100064.91;10203088;29;20055;-62
2023/04/11 08:27:29;;;;;;;6.60;0.75;;;;;;;12.96;53.37;100070.66;10199555;29;20760;-61
2023/04/11 08:32:31;;;;;;;1.83;0.73;;;;;;;12.91;52.91;100073.94;10195536;29;20048;-63
2023/04/11 08:37:32;;;;;;;5.20;0.82;;;;;;;13.02;52.97;100075.25;10196925;29;20047;-61
2023/04/11 08:42:34;;;;;;;3.90;0.93;;;;;;;13.40;52.41;100053.25;10194326;29;20048;-64
2023/04/11 08:47:36;;;;;;;2.95;0.32;;;;;;;13.53;51.94;100053.31;10183326;29;20127;-64
2023/04/11 08:52:38;;;;;;;4.13;0.30;;;;;;;13.43;50.72;100066.34;10203709;29;20067;-64
2023/04/11 08:57:41;;;;;;;3.65;0.30;;;;;;;13.47;50.52;100070.31;10199080;29;20067;-67
2023/04/11 09:03:04;;;;;;;2.00;0.50;;;;;;;13.40;50.18;100072.16;10209368;29;20058;-66
2023/04/11 09:08:07;;;;;;;3.25;0.25;;;;;;;13.45;49.61;100075.91;10207107;29;20069;-65
2023/04/11 09:13:21;;;;;;;3.05;0.20;;;;;;;13.59;49.58;100076.78;10220852;29;20039;-64
2023/04/11 09:18:39;;;;;;;3.95;1.58;;;;;;;13.59;48.58;100079.50;10198076;29;20079;-64
2023/04/11 09:23:40;;;;;;;;;;;;;;;13.70;49.48;100078.06;10211135;29;20059;-64
2023/04/11 09:28:43;;;;;;;3.60;0.28;;;;;;;13.79;48.29;100084.94;10204260;29;20335;-60
2023/04/11 09:33:57;;;;;;;2.38;0.32;;;;;;;13.91;48.17;100089.78;10195082;29;20060;-62
2023/04/11 09:39:00;;;;;;;2.42;0.20;;;;;;;14.05;46.85;100097.69;10184774;29;20155;-63
2023/04/11 09:44:02;;;;;;;3.25;0.20;;;;;;;13.87;47.04;100106.38;10188584;29;20075;-64
2023/04/11 09:49:04;;;;;;;2.13;0.32;;;;;;;14.07;48.22;100092.09;10189982;29;20051;-63
2023/04/11 09:54:07;;;;;;;4.35;0.65;;;;;;;14.34;48.08;100103.78;10187133;29;20058;-62
2023/04/11 09:59:09;;;;;;;4.53;0.30;;;;;;;14.52;46.52;100095.03;10194393;29;20044;-65
2023/04/11 10:04:10;;;;;;;2.25;0.30;;;;;;;14.55;45.69;100082.97;10201512;29;20051;-63
2023/04/11 10:09:12;;;;;;;2.50;0.20;;;;;;;14.73;45.47;100098.59;10197408;29;20044;-62
2023/04/11 10:14:36;;;;;;;3.72;0.22;;;;;;;15.09;44.81;100087.28;10191089;29;20114;-60
2023/04/11 10:19:37;;;;;;;7.47;0.40;;;;;;;15.20;43.43;100089.34;10198233;29;20040;-67
2023/04/11 10:24:39;;;;;;;3.30;0.95;;;;;;;15.03;42.25;100088.97;10165998;29;20052;-64
2023/04/11 10:29:48;;;;;;;2.42;0.32;;;;;;;15.43;42.06;100082.59;10181856;29;20056;-64
2023/04/11 10:34:52;;;;;;;3.17;0.57;;;;;;;15.54;39.92;100078.38;10168474;29;20435;-66
2023/04/11 10:39:53;;;;;;;2.20;0.22;;;;;;;15.99;39.67;100071.06;10180390;29;20061;-68
2023/04/11 10:45:25;;;;;;;3.83;0.35;;;;;;;16.31;38.75;100070.22;10176689;29;20147;-68
2023/04/11 10:50:27;;;;;;;1.23;0.10;;;;;;;16.12;36.51;100069.34;10166297;29;20131;-67
2023/04/11 10:55:40;;;;;;;0.45;0.10;;;;;;;16.28;35.97;100067.97;10183410;29;20064;-69
2023/04/11 11:06:06;;;;;;;2.28;0.17;;;;;;;16.80;35.09;100066.66;10186817;29;20446;-67
2023/04/11 11:11:09;;;;;;;1.27;0.10;;;;;;;16.56;35.03;100070.25;10183163;29;20079;-66
2023/04/11 11:16:16;;;;;;;3.42;0.57;;;;;;;15.70;37.44;100093.31;10184809;29;20095;-66
2023/04/11 11:21:20;;;;;;;;;;;;;;;15.33;39.50;100099.31;10186837;29;20494;-67
2023/04/11 11:26:38;;;;;;;1.42;0.10;;;;;;;15.67;38.74;100095.41;10183899;29;19978;-66
2023/04/11 11:31:44;;;;;;;1.92;0.10;;;;;;;15.51;38.63;100105.91;10182690;29;20140;-67
2023/04/11 11:36:45;;;;;;;3.63;0.63;;;;;;;15.73;38.94;100084.78;10182502;29;20110;-67
2023/04/11 11:41:48;;;;;;;2.58;0.30;;;;;;;15.74;39.49;100089.16;10187286;29;20188;-68
2023/04/11 11:47:11;;;;;;;1.83;0.45;;;;;;;16.26;38.69;100074.44;10186149;29;20051;-66
2023/04/11 11:52:33;;;;;;;1.10;0.35;;;;;;;16.56;37.43;100068.34;10184145;29;20142;-66
2023/04/11 11:57:36;;;;;;;1.13;0.30;;;;;;;16.60;35.11;100077.69;10182497;29;20423;-67
2023/04/11 12:02:39;;;;;;;2.80;0.20;;;;;;;16.27;34.02;100069.81;10187072;29;20041;-65
2023/04/11 12:07:40;;;;;;;2.95;0.20;;;;;;;16.26;32.55;100079.03;10187937;29;20132;-65
2023/04/11 12:12:47;;;;;;;0.10;0.10;;;;;;;16.17;31.17;100086.63;10181073;29;20440;-69
2023/04/11 12:17:54;;;;;;;1.48;0.85;;;;;;;15.90;30.42;100075.09;10171032;29;20067;-69
2023/04/11 12:22:56;;;;;;;3.72;0.20;;;;;;;15.98;31.79;100085.69;10183964;29;20056;-68
2023/04/11 12:27:57;;;;;;;2.30;0.13;;;;;;;16.29;30.95;100078.59;10182531;29;20083;-68
2023/04/11 12:32:59;;;;;;;2.97;0.43;;;;;;;16.65;31.13;100068.91;10178896;29;20076;-68
2023/04/11 12:38:01;;;;;;;0.60;0.03;;;;;;;17.16;29.99;100067.78;10180121;29;20056;-71
2023/04/11 12:43:02;;;;;;;0.75;0.10;;;;;;;16.99;29.71;100067.53;10184381;29;20458;-70
2023/04/11 12:48:04;;;;;;;0.35;0.05;;;;;;;17.15;28.38;100052.53;10182462;29;20139;-69
2023/04/11 12:53:05;;;;;;;1.67;0.10;;;;;;;17.12;28.32;100053.00;10181605;29;20052;-69
2023/04/11 12:58:08;;;;;;;5.30;1.10;;;;;;;17.22;28.50;100058.72;10185138;29;20076;-69
2023/04/11 13:03:09;;;;;;;4.90;0.10;;;;;;;17.01;28.25;100067.31;10183737;29;20047;-70
2023/04/11 13:08:11;;;;;;;2.67;0.10;;;;;;;17.41;28.75;100056.81;10159980;29;20455;-67
2023/04/11 13:13:13;;;;;;;3.63;0.20;;;;;;;17.90;28.68;100070.41;10188062;29;20083;-71
2023/04/11 13:18:19;;;;;;;2.67;0.20;;;;;;;18.20;28.56;100059.50;10159088;29;20415;-67
2023/04/11 13:23:20;;;;;;;2.80;0.17;;;;;;;17.91;27.67;100049.50;10184968;29;20164;-68
2023/04/11 13:28:22;;;;;;;0.32;0.03;;;;;;;17.93;26.84;100059.09;10185195;29;20071;-69
2023/04/11 13:33:25;;;;;;;1.52;0.28;;;;;;;17.95;26.48;100061.56;10198967;29;20055;-65
2023/04/11 13:38:27;;;;;;;2.17;0.20;;;;;;;17.63;27.11;100061.75;10205327;29;20220;-66
2023/04/11 13:43:28;;;;;;;3.15;0.20;;;;;;;17.66;27.57;100052.34;10173577;29;20043;-65
2023/04/11 13:48:30;;;;;;;1.02;0.10;;;;;;;17.79;26.54;100055.72;10183839;29;20067;-66
2023/04/11 13:53:31;;;;;;;1.17;0.10;;;;;;;17.97;25.02;100064.88;10169992;29;20052;-64
2023/04/11 13:58:33;;;;;;;1.85;0.20;;;;;;;18.23;25.88;100066.38;10186693;29;20213;-66
2023/04/11 14:03:34;;;;;;;1.25;0.10;;;;;;;18.08;26.39;100061.38;10168971;29;20052;-65
2023/04/11 14:08:36;;;;;;;1.70;0.08;;;;;;;18.43;26.58;100064.16;10188804;29;20380;-66
2023/04/11 14:13:37;;;;;;;0.77;0.10;;;;;;;18.34;26.99;100068.28;10175456;29;20043;-66
2023/04/11 14:18:39;;;;;;;1.13;0.40;;;;;;;18.45;26.50;100066.66;10181585;29;20048;-67
2023/04/11 14:23:40;;;;;;;0.80;0.10;;;;;;;18.59;26.66;100075.41;10183760;29;20047;-69
2023/04/11 14:28:42;;;;;;;0.80;0.22;;;;;;;18.66;26.59;100065.25;10181791;29;20083;-67
2023/04/11 14:33:43;;;;;;;1.90;0.20;;;;;;;18.52;26.94;100074.69;10171103;29;20055;-66
2023/04/11 14:38:45;;;;;;;1.55;0.20;;;;;;;18.94;26.31;100070.00;10185260;29;20156;-66
2023/04/11 14:43:46;;;;;;;3.70;0.90;;;;;;;19.39;25.53;100063.03;10196300;29;20060;-67
2023/04/11 14:48:47;;;;;;;1.65;0.10;;;;;;;20.22;24.74;100052.59;10191215;29;20051;-66
2023/04/11 14:53:53;;;;;;;0.68;0.10;;;;;;;20.27;24.33;100055.44;10198900;29;20080;-66
2023/04/11 14:58:55;;;;;;;0.77;0.10;;;;;;;19.39;25.20;100055.72;10174477;29;20056;-66
2023/04/11 15:03:56;;;;;;;1.42;0.10;;;;;;;18.82;25.63;100064.56;10190630;29;20056;-66
2023/04/11 15:08:58;;;;;;;2.80;0.57;;;;;;;18.65;25.32;100055.41;10205682;29;20059;-67
2023/04/11 15:14:00;;;;;;;2.15;0.55;;;;;;;19.36;24.81;100049.91;10215560;29;20060;-66
2023/04/11 15:19:01;;;;;;;0.82;0.68;;;;;;;20.02;24.54;100042.19;10175335;29;20139;-66
2023/04/11 15:24:06;;;;;;;3.08;0.30;;;;;;;19.82;24.31;100042.63;10181565;29;20111;-68
2023/04/11 15:29:13;;;;;;;1.60;0.10;;;;;;;19.88;24.68;100043.56;10183046;29;20048;-66
2023/04/11 15:34:14;;;;;;;2.22;0.20;;;;;;;19.55;24.75;100050.53;10205693;29;20115;-66
2023/04/11 15:39:15;;;;;;;1.80;0.20;;;;;;;18.59;26.25;100053.66;10198019;29;20048;-66
2023/04/11 15:44:17;;;;;;;2.65;0.30;;;;;;;18.06;27.74;100043.63;10193848;29;20059;-66
2023/04/11 15:49:18;;;;;;;3.65;0.20;;;;;;;17.93;28.59;100050.94;10190319;29;20126;-67
2023/04/11 15:54:20;;;;;;;1.77;0.20;;;;;;;17.62;29.22;100052.78;10195068;29;20134;-66
2023/04/11 15:59:23;;;;;;;3.47;0.20;;;;;;;17.58;29.43;100046.16;10207564;29;20048;-67
2023/04/11 16:04:25;;;;;;;5.38;1.85;;;;;;;17.54;29.35;100044.97;10197281;29;20075;-66
2023/04/11 16:09:27;;;;;;;2.70;0.13;;;;;;;18.01;29.14;100028.84;10199750;29;20062;-66
2023/04/11 16:14:28;;;;;;;1.75;0.20;;;;;;;18.16;28.37;100035.72;10194953;29;20086;-66
2023/04/11 16:19:30;;;;;;;2.10;0.20;;;;;;;18.27;28.29;100029.47;10193085;29;20051;-66
2023/04/11 16:24:32;;;;;;;0.80;0.17;;;;;;;17.94;28.17;100044.41;10180536;29;20130;-67
2023/04/11 16:29:34;;;;;;;2.95;0.20;;;;;;;17.98;27.99;100033.91;10182553;29;20099;-66
2023/04/11 16:34:35;;;;;;;1.50;0.10;;;;;;;18.16;27.57;100033.00;10179873;29;20048;-66
2023/04/11 16:39:37;;;;;;;2.58;0.28;;;;;;;18.06;27.50;100033.56;10188872;29;20103;-65
2023/04/11 16:44:38;;;;;;;1.38;0.17;;;;;;;17.97;27.38;100026.78;10181721;29;20131;-67
2023/04/11 16:49:40;;;;;;;5.13;0.15;;;;;;;17.82;27.99;100028.03;10180189;29;20142;-66
2023/04/11 16:54:42;;;;;;;1.80;0.20;;;;;;;17.45;28.65;100030.03;10184743;29;20111;-66
2023/04/11 16:59:43;;;;;;;3.80;0.17;;;;;;;17.35;28.93;100025.13;10183268;29;20051;-66
2023/04/11 17:04:45;;;;;;;3.70;0.30;;;;;;;16.91;29.13;100029.84;10187610;29;20084;-66
2023/04/11 17:09:47;;;;;;;1.58;0.20;;;;;;;16.54;29.42;100024.31;10178838;29;20063;-65
2023/04/11 17:14:51;;;;;;;1.73;0.30;;;;;;;16.37;29.57;100031.34;10186228;29;20067;-66
2023/04/11 17:19:52;;;;;;;1.70;0.25;;;;;;;16.09;29.91;100034.50;10175002;29;20051;-66
2023/04/11 17:24:54;;;;;;;2.03;0.20;;;;;;;15.92;30.27;100028.81;10181102;29;20118;-66
2023/04/11 17:29:55;;;;;;;2.25;0.25;;;;;;;15.79;30.58;100030.53;10183509;29;20629;-66
2023/04/11 17:34:57;;;;;;;2.50;0.82;;;;;;;15.83;30.76;100026.34;10179246;29;20083;-66
2023/04/11 17:39:58;;;;;;;0.63;0.20;;;;;;;15.83;31.29;100031.75;10179001;29;20091;-66
2023/04/11 17:45:00;;;;;;;1.70;0.22;;;;;;;15.72;31.53;100028.88;10166847;29;20062;-66
2023/04/11 17:50:15;;;;;;;3.90;0.20;;;;;;;15.67;31.67;100033.06;10182339;29;20079;-65
2023/04/11 17:55:17;;;;;;;1.90;0.30;;;;;;;15.67;32.04;100034.97;10176329;29;20067;-65
2023/04/11 18:00:24;;;;;;;2.80;0.40;;;;;;;15.67;32.07;100045.81;10176785;29;20052;-63
2023/04/11 18:05:27;;;;;;;2.42;0.20;;;;;;;15.60;32.34;100036.88;10179824;29;20189;-62
2023/04/11 18:10:29;;;;;;;6.72;0.40;;;;;;;15.45;32.78;100043.41;10188555;29;20087;-62
2023/04/11 18:15:31;;;;;;;1.95;0.60;;;;;;;15.53;32.93;100046.94;10175534;29;20131;-62
2023/04/11 18:20:33;;;;;;;4.35;0.52;;;;;;;15.40;33.32;100051.38;10177986;29;20091;-62
2023/04/11 18:25:34;;;;;;;2.67;0.60;;;;;;;15.38;33.46;100049.91;10182023;29;20113;-63
2023/04/11 18:30:36;;;;;;;6.55;0.45;;;;;;;15.43;33.73;100050.09;10190106;29;20724;-62
2023/04/11 18:35:37;;;;;;;2.75;0.60;;;;;;;15.42;33.70;100043.84;10170791;29;20096;-62
2023/04/11 18:40:39;;;;;;;2.65;0.52;;;;;;;15.39;34.02;100048.88;10164886;29;88203;-62
2023/04/11 18:45:40;;;;;;;7.68;3.05;;;;;;;15.50;34.05;100044.63;10132050;29;20051;-63
2023/04/11 18:50:47;;;;;;;6.70;0.50;;;;;;;15.44;34.33;100046.31;10120506;29;20135;-62
2023/04/11 18:55:48;;;;;;;1.58;0.30;;;;;;;15.45;34.57;100048.81;10131905;29;20064;-61
2023/04/11 19:00:50;;;;;;;3.42;0.40;;;;;;;15.45;34.78;100054.25;10135171;29;20048;-63
2023/04/11 19:05:51;;;;;;;2.88;0.30;;;;;;;15.40;34.99;100045.94;10146560;29;20060;-64
2023/04/11 19:10:54;;;;;;;4.80;0.40;;;;;;;15.30;35.58;100050.16;10153717;29;20135;-61
2023/04/11 19:15:56;;;;;;;2.83;0.82;;;;;;;15.10;35.82;100039.38;10157930;29;20056;-61
2023/04/11 19:20:57;;;;;;;2.15;0.50;;;;;;;15.06;35.81;100042.50;10158351;29;20121;-61
2023/04/11 19:25:59;;;;;;;1.27;0.40;;;;;;;14.98;36.07;100040.03;10158354;29;20091;-62
2023/04/11 19:31:00;;;;;;;2.78;0.30;;;;;;;14.94;36.38;100035.28;10158583;29;20152;-61
2023/04/11 19:36:02;;;;;;;3.60;0.50;;;;;;;14.85;36.51;100021.16;10165043;29;20052;-62
2023/04/11 19:41:15;;;;;;;2.45;0.55;;;;;;;14.77;37.01;100011.38;10161543;29;20040;-63
2023/04/11 19:46:17;;;;;;;3.15;0.60;;;;;;;14.68;37.11;100010.75;10158186;29;20457;-63
2023/04/11 19:51:18;;;;;;;4.38;0.50;;;;;;;14.54;37.82;99997.47;10158716;29;20068;-62
2023/04/11 19:56:20;;;;;;;6.32;0.70;;;;;;;14.39;38.23;99998.50;10156701;29;20044;-63
2023/04/11 20:01:21;;;;;;;2.80;0.52;;;;;;;14.31;38.50;99998.72;10156370;29;20115;-62
2023/04/11 20:06:22;;;;;;;3.30;0.65;;;;;;;14.21;38.80;99992.91;10156295;29;20135;-62
2023/04/11 20:11:24;;;;;;;4.43;0.55;;;;;;;14.12;39.29;99992.31;10152453;29;20101;-62
2023/04/11 20:16:30;;;;;;;2.13;0.50;;;;;;;14.04;39.66;100004.16;10145010;29;20056;-62
2023/04/11 20:21:32;;;;;;;6.50;0.80;;;;;;;14.01;39.88;99991.03;10160303;29;20079;-64
2023/04/11 20:26:33;;;;;;;4.07;1.05;;;;;;;13.94;40.08;99986.66;10139322;29;20124;-63
2023/04/11 20:31:35;;;;;;;9.32;0.82;;;;;;;13.90;40.46;99978.13;10154973;29;20086;-61
2023/04/11 20:36:36;;;;;;;8.73;1.40;;;;;;;13.87;40.63;99965.06;10155920;29;20663;-62
2023/04/11 20:41:39;;;;;;;6.00;0.95;;;;;;;13.81;40.63;99974.00;10148211;29;20092;-62
2023/04/11 20:46:40;;;;;;;3.17;0.70;;;;;;;13.77;40.95;99964.63;10161753;29;20059;-65
2023/04/11 20:51:43;;;;;;;3.85;0.70;;;;;;;13.79;41.07;99954.44;10139484;29;20156;-66
2023/04/11 20:56:44;;;;;;;6.22;1.70;;;;;;;13.76;41.27;99941.34;10168951;29;20055;-67
2023/04/11 21:01:47;;;;;;;4.35;0.60;;;;;;;13.72;41.37;99942.81;10156561;29;22164;-65
2023/04/11 21:06:49;;;;;;;5.05;0.95;;;;;;;13.72;41.55;99938.22;10163574;29;20154;-65
2023/04/11 21:11:50;;;;;;;4.03;0.70;;;;;;;13.75;41.42;99929.72;10170744;29;20052;-65
2023/04/11 21:16:52;;;;;;;2.97;0.70;;;;;;;13.69;41.70;99922.44;10168494;29;20287;-65
2023/04/11 21:21:53;;;;;;;8.27;1.38;;;;;;;13.69;41.92;99919.75;10163941;29;20052;-66
2023/04/11 21:26:55;;;;;;;5.70;0.85;;;;;;;13.64;42.11;99923.03;10163287;29;20115;-66
2023/04/11 21:31:56;;;;;;;4.03;0.50;;;;;;;13.56;41.97;99906.22;10158258;29;20048;-65
2023/04/11 21:36:58;;;;;;;3.78;0.70;;;;;;;13.51;42.08;99900.59;10160866;29;20111;-64
2023/04/11 21:42:00;;;;;;;9.80;0.90;;;;;;;13.53;42.19;99899.38;10150782;29;20064;-65
2023/04/11 21:47:02;;;;;;;7.30;0.60;;;;;;;13.57;41.88;99886.28;10151754;29;20060;-65
2023/04/11 21:52:04;;;;;;;5.32;0.77;;;;;;;13.54;41.70;99881.28;10166697;29;20080;-65
2023/04/11 21:57:05;;;;;;;6.70;0.60;;;;;;;13.55;42.02;99874.88;10166951;29;20332;-64
2023/04/11 22:02:07;;;;;;;3.47;0.55;;;;;;;13.53;42.06;99869.66;10168687;29;20049;-65
2023/04/11 22:07:13;;;;;;;5.10;0.77;;;;;;;13.52;42.62;99870.69;10159220;29;20045;-65
2023/04/11 22:12:18;;;;;;;2.45;0.80;;;;;;;13.52;42.55;99851.78;10164769;29;20084;-66
2023/04/11 22:17:21;;;;;;;3.85;0.65;;;;;;;13.58;42.66;99855.53;10159292;29;20086;-65
2023/04/11 22:22:27;;;;;;;5.13;0.90;;;;;;;13.56;42.78;99842.22;10154553;29;20061;-66
2023/04/11 22:27:32;;;;;;;2.97;0.60;;;;;;;13.51;42.77;99842.03;10170913;29;20064;-65
2023/04/11 22:32:35;;;;;;;3.78;1.27;;;;;;;13.50;42.90;99837.66;10162069;29;20308;-65
2023/04/11 22:37:37;;;;;;;5.88;0.40;;;;;;;13.48;43.00;99843.28;10154578;29;20052;-66
2023/04/11 22:42:39;;;;;;;2.03;0.30;;;;;;;13.52;43.11;99842.88;10141040;29;20052;-66
2023/04/11 22:47:44;;;;;;;3.20;0.50;;;;;;;13.45;43.43;99834.78;10174428;29;20056;-64
2023/04/11 22:52:46;;;;;;;4.50;0.77;;;;;;;13.40;43.67;99815.66;10172512;29;20068;-66
2023/04/11 22:57:47;;;;;;;7.70;1.00;;;;;;;13.40;43.43;99807.56;10166000;29;20147;-66
2023/04/11 23:02:49;;;;;;;4.55;0.50;;;;;;;13.35;43.38;99804.63;10177606;29;20054;-65
2023/04/11 23:07:51;;;;;;;2.97;0.80;;;;;;;13.34;43.85;99803.00;10181104;29;20052;-65
2023/04/11 23:12:53;;;;;;;5.50;0.93;;;;;;;13.33;44.13;99793.22;10171403;29;20052;-65
2023/04/11 23:17:54;;;;;;;4.25;0.60;;;;;;;13.29;44.31;99795.50;10180746;29;20056;-65
2023/04/11 23:22:57;;;;;;;3.55;1.23;;;;;;;13.23;44.47;99786.34;10177498;29;20131;-65
2023/04/11 23:27:58;;;;;;;5.07;0.50;;;;;;;13.21;44.69;99784.88;10173411;29;20060;-66